Portada
METAR-TAF:

METAR-TAF

Aeropuertos :

Aeropuerto Internacional de Kazán

Kazán, Rusia

latitud: 55-47N, longitud: 049-12E, altitud: 125 m

Observación

El informe se hizo hace 25 minutos, a las 14:30 UTC
Viento 16 kt del norte-noroeste con ráfagas de 25 kt
Temperatura 7°C
Humedad 49%
Presión 1013 hPa
Visibilidad 10 km o más
Cielo nuboso a una altura de 4600 ft

METAR: UWKD 191430Z 34008G13MPS 9999 BKN046 07/M03 Q1013 R29/70D NOSIG RMK QFE749/0998

Hora: 17:55 (14:55 UTC)

Pronóstico

El informe se hizo hace 55 minutos, a las 14:00 UTC
Pronóstico válido del 19 a las 15 UTC al 20 a las 15 UTC
Viento 10 kt del noroeste con ráfagas de 23 kt
Visibilidad 10 km o más
Cielo nuboso a una altura de 3000 ft

TAF: UWKD 191400Z 1915/2015 32005G12MPS 9999 BKN030 TX14/2011Z TN03/2001Z

Observaciones y pronósticos meteorológicos de más de 4000 aeropuertos (mensajes METAR y TAF).

Los puntos amarillos y rojos representan las estaciones disponibles.

Ponga el ratón en el punto deseado para ver el nombre de la estación.

Haga clic para ver las observaciones y los pronósticos meteorológicos.

Para cambiar el mapa : haga clic en los botones verdes con una cruz de color negro para hacer un zoom, en el botón verde con un guión para alejar o en las flechas verdes para mapas adyacentes.


METAR-TAF: